Flight Track Log - Related Links

Times and Time Zones

All times are in EDT time to prevent confusion due to time zone crossing. See the SLI158 flight status page for this flight to view local times or setup timezone preferences in your user account.

Time Position Orientation Groundspeed Altitude Reporting Facility
EDT Latitude Longitude Course Direction KTS MPH feet Rate Location/Type
Thu 01:38:00 PM 20.9811 -101.3781 306° West  Level Estimated
Thu 01:39:00 PM 21.0274 -101.4487 305° West  Level Estimated
Thu 01:40:00 PM 21.0737 -101.5193 305° West  Level Estimated
Thu 01:41:00 PM 21.1200 -101.5900 305° West  Level Estimated
Thu 01:42:00 PM 21.1663 -101.6607 305° West  Level Estimated
Thu 01:43:00 PM 21.2125 -101.7315 305° West  Level Estimated
Thu 01:44:00 PM 21.2587 -101.8023 305° West  Level Estimated
Thu 01:45:00 PM 21.3048 -101.8732 305° West  Level Estimated
Thu 01:46:00 PM 21.3510 -101.9441 305° West  Level Estimated
Thu 01:47:00 PM 21.3971 -102.0151 305° West  Level Estimated
Thu 01:48:00 PM 21.4431 -102.0861 305° West  Level Estimated
Thu 01:49:00 PM 21.4892 -102.1571 305° West  Level Estimated
Thu 01:50:00 PM 21.5352 -102.2282 305° West  Level Estimated
Thu 01:51:00 PM 21.5812 -102.2993 305° West  Level Estimated
Thu 01:52:00 PM 21.6271 -102.3705 305° West  Level Estimated
Thu 01:53:00 PM 21.6730 -102.4418 305° West  Level Estimated
Thu 01:54:00 PM 21.7189 -102.5130 305° West  Level Estimated
Thu 01:55:00 PM 21.7648 -102.5844 305° West  Level Estimated
Thu 01:56:00 PM 21.8106 -102.6557 305° West  Level Estimated
Thu 01:57:00 PM 21.8564 -102.7271 305° West  Level Estimated
Thu 01:58:00 PM 21.9021 -102.7986 305° West  Level Estimated
Thu 01:59:00 PM 21.9479 -102.8701 305° West  Level Estimated
Thu 02:00:00 PM 21.9936 -102.9416 305° West  Level Estimated
Thu 02:01:00 PM 22.0392 -103.0132 305° West  Level Estimated
Thu 02:02:00 PM 22.0849 -103.0849 305° West  Level Estimated
Thu 02:03:00 PM 22.1305 -103.1565 304° West  Level Estimated
Thu 02:04:00 PM 22.1761 -103.2283 304° West  Level Estimated
Thu 02:05:00 PM 22.2216 -103.3001 304° West  Level Estimated
Thu 02:06:00 PM 22.2671 -103.3719 304° West  Level Estimated
Thu 02:07:00 PM 22.3126 -103.4438 304° West  Level Estimated
Thu 02:08:00 PM 22.3581 -103.5157 304° West  Level Estimated
Thu 02:09:00 PM 22.4035 -103.5876 304° West  Level Estimated
Thu 02:10:00 PM 22.4489 -103.6597 304° West  Level Estimated
Thu 02:11:00 PM 22.4942 -103.7317 304° West  Level Estimated
Thu 02:12:00 PM 22.5396 -103.8038 304° West  Level Estimated
Thu 02:13:00 PM 22.5849 -103.8760 304° West  Level Estimated
Thu 02:14:00 PM 22.6301 -103.9482 304° West  Level Estimated
Thu 02:15:00 PM 22.6753 -104.0204 304° West  Level Estimated
Thu 02:16:00 PM 22.7205 -104.0927 304° West  Level Estimated
Thu 02:17:00 PM 22.7657 -104.1651 304° West  Level Estimated
Thu 02:18:00 PM 22.8108 -104.2375 304° West  Level Estimated
Thu 02:19:00 PM 22.8559 -104.3099 304° West  Level Estimated
Thu 02:20:00 PM 22.9010 -104.3824 304° West  Level Estimated
Thu 02:21:00 PM 22.9460 -104.4549 304° West  Level Estimated
Thu 02:22:00 PM 22.9910 -104.5275 304° West  Level Estimated
Thu 02:23:00 PM 23.0360 -104.6002 304° West  Level Estimated
Thu 02:24:00 PM 23.0809 -104.6728 304° West  Level Estimated
Thu 02:25:00 PM 23.1258 -104.7456 304° West  Level Estimated
Thu 02:26:00 PM 23.1707 -104.8183 304° West  Level Estimated
Thu 02:27:00 PM 23.2155 -104.8912 304° West  Level Estimated
Thu 02:28:00 PM 23.2603 -104.9641 304° West  Level Estimated
Thu 02:29:00 PM 23.3050 -105.0370 304° West  Level Estimated
Thu 02:30:00 PM 23.3498 -105.1099 304° West  Level Estimated
Thu 02:31:00 PM 23.3945 -105.1830 304° West  Level Estimated
Thu 02:32:00 PM 23.4391 -105.2560 304° West  Level Estimated
Thu 02:33:00 PM 23.4838 -105.3292 304° West  Level Estimated
Thu 02:34:00 PM 23.5284 -105.4023 304° West  Level Estimated
Thu 02:35:00 PM 23.5729 -105.4755 304° West  Level Estimated
Thu 02:36:00 PM 23.6175 -105.5488 304° West  Level Estimated
Thu 02:37:00 PM 23.6619 -105.6221 304° West  Level Estimated
Thu 02:38:00 PM 23.7064 -105.6955 304° West  Level Estimated
Thu 02:39:00 PM 23.7508 -105.7689 303° West  Level Estimated
Thu 02:40:00 PM 23.7952 -105.8424 303° West  Level Estimated
Thu 02:41:00 PM 23.8396 -105.9159 303° West  Level Estimated
Thu 02:42:00 PM 23.8839 -105.9895 303° West  Level Estimated
Thu 02:43:00 PM 23.9282 -106.0631 303° West  Level Estimated
Thu 02:44:00 PM 23.9724 -106.1368 303° West  Level Estimated
Thu 02:45:00 PM 24.0166 -106.2105 303° West  Level Estimated
Thu 02:46:00 PM 24.0608 -106.2843 303° West  Level Estimated
Thu 02:47:00 PM 24.1049 -106.3581 303° West  Level Estimated
Thu 02:48:00 PM 24.1490 -106.4320 303° West  Level Estimated
Thu 02:49:00 PM 24.1931 -106.5059 303° West  Level Estimated
Thu 02:50:00 PM 24.2372 -106.5799 303° West  Level Estimated
Thu 02:51:00 PM 24.2812 -106.6539 303° West  Level Estimated
Thu 02:52:00 PM 24.3251 -106.7280 303° West  Level Estimated
Thu 02:53:00 PM 24.3690 -106.8021 303° West  Level Estimated
Thu 02:54:00 PM 24.4129 -106.8763 303° West  Level Estimated
Thu 02:55:00 PM 24.4568 -106.9505 303° West  Level Estimated
Thu 02:56:00 PM 24.5006 -107.0248 303° West  Level Estimated
Thu 02:57:00 PM 24.5444 -107.0992 303° West  Level Estimated
Thu 02:58:00 PM 24.5881 -107.1736 303° West  Level Estimated
Thu 02:59:00 PM 24.6318 -107.2480 303° West  Level Estimated
Thu 03:00:00 PM 24.6755 -107.3225 303° West  Level Estimated
Thu 03:01:00 PM 24.7192 -107.3970 303° West  Level Estimated
Thu 03:02:00 PM 24.7628 -107.4716 303° West  Level Estimated
Thu 03:03:00 PM 24.7645 -107.4747 303° West  Level Estimated
Thu 03:04:00 PM 24.7645 -107.4747 138° Southeast  Level Estimated
Thu 03:05:00 PM 24.7645 -107.4747 138° Southeast  Level Estimated
Thu 03:06:00 PM 24.7645 -107.4747 138° Southeast  Level Estimated
Thu 03:07:00 PM 24.7645 -107.4747 138° Southeast  Level Estimated

Login

Don't have an account? Register now (free) for customized features, flight alerts, and more!